<?xml version="1.0" encoding="UTF-8" standalone="no" ?>
<gpx xmlns="http://www.topografix.com/GPX/1/1" xmlns:xsi="http://www.w3.org/2001/XMLSchema-instance" xsi:schemaLocation="http://www.topografix.com/GPX/1/1 http://www.topografix.com/GPX/1/1/gpx.xsd" version="1.1" creator="VisuGPX - https://www.visugpx.com">
  <metadata>
    <name>Rando Le pont de Montvert</name>
    <desc><![CDATA[Belle balade! ]]></desc>
  </metadata>
  <trk>
    <name><![CDATA[Rando Le pont de Montvert_1]]></name>
    <trkseg>
      <trkpt lat="44.36392" lon="3.74534">
        <ele>890.4</ele>
        <time>2022-08-08T10:29:36Z</time>
      </trkpt>
      <trkpt lat="44.36388" lon="3.74536">
        <ele>890</ele>
        <time>2022-08-08T10:29:46Z</time>
      </trkpt>
      <trkpt lat="44.36388" lon="3.74536">
        <ele>890.2</ele>
        <time>2022-08-08T10:29:58Z</time>
      </trkpt>
      <trkpt lat="44.36388" lon="3.74535">
        <ele>890.2</ele>
        <time>2022-08-08T10:29:59Z</time>
      </trkpt>
      <trkpt lat="44.36387" lon="3.74535">
        <ele>890.4</ele>
        <time>2022-08-08T10:30:04Z</time>
      </trkpt>
      <trkpt lat="44.36387" lon="3.74534">
        <ele>890.4</ele>
        <time>2022-08-08T10:30:06Z</time>
      </trkpt>
      <trkpt lat="44.36387" lon="3.74534">
        <ele>890</ele>
        <time>2022-08-08T10:30:08Z</time>
      </trkpt>
      <trkpt lat="44.36386" lon="3.74534">
        <ele>890</ele>
        <time>2022-08-08T10:30:12Z</time>
      </trkpt>
      <trkpt lat="44.36386" lon="3.74533">
        <ele>889.8</ele>
        <time>2022-08-08T10:30:17Z</time>
      </trkpt>
      <trkpt lat="44.36386" lon="3.74533">
        <ele>890</ele>
        <time>2022-08-08T10:30:28Z</time>
      </trkpt>
      <trkpt lat="44.36385" lon="3.74532">
        <ele>890</ele>
        <time>2022-08-08T10:30:29Z</time>
      </trkpt>
      <trkpt lat="44.36385" lon="3.74532">
        <ele>890.2</ele>
        <time>2022-08-08T10:30:30Z</time>
      </trkpt>
      <trkpt lat="44.36385" lon="3.74532">
        <ele>890.2</ele>
        <time>2022-08-08T10:30:41Z</time>
      </trkpt>
      <trkpt lat="44.36384" lon="3.74531">
        <ele>889.6</ele>
        <time>2022-08-08T10:30:53Z</time>
      </trkpt>
      <trkpt lat="44.36384" lon="3.74531">
        <ele>889.2</ele>
        <time>2022-08-08T10:30:56Z</time>
      </trkpt>
      <trkpt lat="44.36383" lon="3.74531">
        <ele>888.6</ele>
        <time>2022-08-08T10:31:07Z</time>
      </trkpt>
      <trkpt lat="44.36383" lon="3.7453">
        <ele>888.2</ele>
        <time>2022-08-08T10:31:12Z</time>
      </trkpt>
      <trkpt lat="44.36383" lon="3.7453">
        <ele>888</ele>
        <time>2022-08-08T10:31:19Z</time>
      </trkpt>
      <trkpt lat="44.36382" lon="3.74529">
        <ele>889.2</ele>
        <time>2022-08-08T10:31:32Z</time>
      </trkpt>
      <trkpt lat="44.36382" lon="3.74529">
        <ele>889.4</ele>
        <time>2022-08-08T10:31:33Z</time>
      </trkpt>
      <trkpt lat="44.36382" lon="3.74529">
        <ele>890.2</ele>
        <time>2022-08-08T10:31:36Z</time>
      </trkpt>
      <trkpt lat="44.36381" lon="3.74528">
        <ele>890</ele>
        <time>2022-08-08T10:31:43Z</time>
      </trkpt>
      <trkpt lat="44.36381" lon="3.74528">
        <ele>889.8</ele>
        <time>2022-08-08T10:31:55Z</time>
      </trkpt>
      <trkpt lat="44.36381" lon="3.74527">
        <ele>889.6</ele>
        <time>2022-08-08T10:32:07Z</time>
      </trkpt>
      <trkpt lat="44.3638" lon="3.74527">
        <ele>889.4</ele>
        <time>2022-08-08T10:32:20Z</time>
      </trkpt>
      <trkpt lat="44.3638" lon="3.74527">
        <ele>890</ele>
        <time>2022-08-08T10:32:28Z</time>
      </trkpt>
      <trkpt lat="44.3638" lon="3.74526">
        <ele>889.8</ele>
        <time>2022-08-08T10:32:29Z</time>
      </trkpt>
      <trkpt lat="44.36379" lon="3.74526">
        <ele>890</ele>
        <time>2022-08-08T10:32:40Z</time>
      </trkpt>
      <trkpt lat="44.36379" lon="3.74525">
        <ele>890.2</ele>
        <time>2022-08-08T10:32:55Z</time>
      </trkpt>
      <trkpt lat="44.36379" lon="3.74525">
        <ele>890.2</ele>
        <time>2022-08-08T10:32:56Z</time>
      </trkpt>
      <trkpt lat="44.36378" lon="3.74525">
        <ele>890.2</ele>
        <time>2022-08-08T10:33:15Z</time>
      </trkpt>
      <trkpt lat="44.36378" lon="3.74524">
        <ele>890</ele>
        <time>2022-08-08T10:33:30Z</time>
      </trkpt>
      <trkpt lat="44.36378" lon="3.74524">
        <ele>889.8</ele>
        <time>2022-08-08T10:33:46Z</time>
      </trkpt>
      <trkpt lat="44.36377" lon="3.74524">
        <ele>890.2</ele>
        <time>2022-08-08T10:34:24Z</time>
      </trkpt>
      <trkpt lat="44.36377" lon="3.74523">
        <ele>889.8</ele>
        <time>2022-08-08T10:34:25Z</time>
      </trkpt>
      <trkpt lat="44.36366" lon="3.74487">
        <ele>889.4</ele>
        <time>2022-08-08T10:34:35Z</time>
      </trkpt>
      <trkpt lat="44.36368" lon="3.74474">
        <ele>888.4</ele>
        <time>2022-08-08T10:34:45Z</time>
      </trkpt>
      <trkpt lat="44.36369" lon="3.74472">
        <ele>888</ele>
        <time>2022-08-08T10:34:48Z</time>
      </trkpt>
      <trkpt lat="44.36369" lon="3.74471">
        <ele>887.8</ele>
        <time>2022-08-08T10:34:49Z</time>
      </trkpt>
      <trkpt lat="44.36368" lon="3.74469">
        <ele>887.6</ele>
        <time>2022-08-08T10:34:51Z</time>
      </trkpt>
      <trkpt lat="44.36368" lon="3.74468">
        <ele>887.2</ele>
        <time>2022-08-08T10:34:53Z</time>
      </trkpt>
      <trkpt lat="44.36367" lon="3.74467">
        <ele>886.8</ele>
        <time>2022-08-08T10:34:55Z</time>
      </trkpt>
      <trkpt lat="44.36365" lon="3.74467">
        <ele>886</ele>
        <time>2022-08-08T10:35:01Z</time>
      </trkpt>
      <trkpt lat="44.36361" lon="3.74467">
        <ele>885</ele>
        <time>2022-08-08T10:35:08Z</time>
      </trkpt>
      <trkpt lat="44.36357" lon="3.74469">
        <ele>884.6</ele>
        <time>2022-08-08T10:35:16Z</time>
      </trkpt>
      <trkpt lat="44.36355" lon="3.74471">
        <ele>883.8</ele>
        <time>2022-08-08T10:35:20Z</time>
      </trkpt>
      <trkpt lat="44.36354" lon="3.74472">
        <ele>882.8</ele>
        <time>2022-08-08T10:35:24Z</time>
      </trkpt>
      <trkpt lat="44.36354" lon="3.74472">
        <ele>882.8</ele>
        <time>2022-08-08T10:35:25Z</time>
      </trkpt>
      <trkpt lat="44.36345" lon="3.74465">
        <ele>882.6</ele>
        <time>2022-08-08T10:35:32Z</time>
      </trkpt>
      <trkpt lat="44.36343" lon="3.74456">
        <ele>881.8</ele>
        <time>2022-08-08T10:35:40Z</time>
      </trkpt>
      <trkpt lat="44.36342" lon="3.74454">
        <ele>881.4</ele>
        <time>2022-08-08T10:35:42Z</time>
      </trkpt>
      <trkpt lat="44.36341" lon="3.74451">
        <ele>881</ele>
        <time>2022-08-08T10:35:44Z</time>
      </trkpt>
      <trkpt lat="44.3634" lon="3.74449">
        <ele>880.6</ele>
        <time>2022-08-08T10:35:47Z</time>
      </trkpt>
      <trkpt lat="44.36342" lon="3.74444">
        <ele>879.6</ele>
        <time>2022-08-08T10:35:54Z</time>
      </trkpt>
      <trkpt lat="44.36343" lon="3.74439">
        <ele>878.8</ele>
        <time>2022-08-08T10:35:59Z</time>
      </trkpt>
      <trkpt lat="44.36342" lon="3.74436">
        <ele>878.6</ele>
        <time>2022-08-08T10:36:02Z</time>
      </trkpt>
      <trkpt lat="44.36344" lon="3.74423">
        <ele>878.2</ele>
        <time>2022-08-08T10:36:30Z</time>
      </trkpt>
      <trkpt lat="44.36331" lon="3.74433">
        <ele>877.2</ele>
        <time>2022-08-08T10:36:37Z</time>
      </trkpt>
      <trkpt lat="44.36332" lon="3.74434">
        <ele>876.6</ele>
        <time>2022-08-08T10:36:43Z</time>
      </trkpt>
      <trkpt lat="44.36334" lon="3.74434">
        <ele>876.2</ele>
        <time>2022-08-08T10:37:04Z</time>
      </trkpt>
      <trkpt lat="44.36334" lon="3.74434">
        <ele>875.4</ele>
        <time>2022-08-08T10:37:11Z</time>
      </trkpt>
      <trkpt lat="44.36334" lon="3.74434">
        <ele>875</ele>
        <time>2022-08-08T10:37:12Z</time>
      </trkpt>
      <trkpt lat="44.36334" lon="3.74434">
        <ele>874.8</ele>
        <time>2022-08-08T10:37:14Z</time>
      </trkpt>
      <trkpt lat="44.36334" lon="3.74434">
        <ele>874.8</ele>
        <time>2022-08-08T10:37:16Z</time>
      </trkpt>
      <trkpt lat="44.36334" lon="3.74434">
        <ele>874.8</ele>
        <time>2022-08-08T10:37:17Z</time>
      </trkpt>
      <trkpt lat="44.36334" lon="3.74434">
        <ele>874</ele>
        <time>2022-08-08T10:37:25Z</time>
      </trkpt>
      <trkpt lat="44.36334" lon="3.74434">
        <ele>873</ele>
        <time>2022-08-08T10:37:35Z</time>
      </trkpt>
      <trkpt lat="44.36334" lon="3.74434">
        <ele>871.8</ele>
        <time>2022-08-08T10:37:42Z</time>
      </trkpt>
      <trkpt lat="44.36334" lon="3.74434">
        <ele>870.8</ele>
        <time>2022-08-08T10:37:51Z</time>
      </trkpt>
      <trkpt lat="44.36324" lon="3.74401">
        <ele>871.2</ele>
        <time>2022-08-08T10:38:00Z</time>
      </trkpt>
      <trkpt lat="44.36324" lon="3.74404">
        <ele>871.2</ele>
        <time>2022-08-08T10:38:01Z</time>
      </trkpt>
      <trkpt lat="44.36326" lon="3.74411">
        <ele>871.4</ele>
        <time>2022-08-08T10:38:03Z</time>
      </trkpt>
      <trkpt lat="44.36324" lon="3.74416">
        <ele>871.6</ele>
        <time>2022-08-08T10:38:12Z</time>
      </trkpt>
      <trkpt lat="44.36323" lon="3.74425">
        <ele>871.8</ele>
        <time>2022-08-08T10:38:19Z</time>
      </trkpt>
      <trkpt lat="44.36321" lon="3.74429">
        <ele>871.6</ele>
        <time>2022-08-08T10:38:22Z</time>
      </trkpt>
      <trkpt lat="44.36321" lon="3.74431">
        <ele>871.6</ele>
        <time>2022-08-08T10:38:26Z</time>
      </trkpt>
      <trkpt lat="44.36319" lon="3.74434">
        <ele>871.8</ele>
        <time>2022-08-08T10:38:31Z</time>
      </trkpt>
      <trkpt lat="44.36314" lon="3.7444">
        <ele>871.8</ele>
        <time>2022-08-08T10:38:40Z</time>
      </trkpt>
      <trkpt lat="44.36312" lon="3.74441">
        <ele>872</ele>
        <time>2022-08-08T10:38:53Z</time>
      </trkpt>
      <trkpt lat="44.36312" lon="3.74439">
        <ele>871.8</ele>
        <time>2022-08-08T10:39:10Z</time>
      </trkpt>
      <trkpt lat="44.36315" lon="3.74439">
        <ele>871.8</ele>
        <time>2022-08-08T10:39:26Z</time>
      </trkpt>
      <trkpt lat="44.36318" lon="3.74433">
        <ele>872</ele>
        <time>2022-08-08T10:39:35Z</time>
      </trkpt>
      <trkpt lat="44.36319" lon="3.74424">
        <ele>872</ele>
        <time>2022-08-08T10:39:47Z</time>
      </trkpt>
      <trkpt lat="44.36323" lon="3.74417">
        <ele>872.2</ele>
        <time>2022-08-08T10:39:59Z</time>
      </trkpt>
      <trkpt lat="44.36323" lon="3.74415">
        <ele>871</ele>
        <time>2022-08-08T10:40:14Z</time>
      </trkpt>
      <trkpt lat="44.36323" lon="3.74413">
        <ele>870.8</ele>
        <time>2022-08-08T10:40:21Z</time>
      </trkpt>
      <trkpt lat="44.36325" lon="3.74408">
        <ele>870.4</ele>
        <time>2022-08-08T10:40:26Z</time>
      </trkpt>
      <trkpt lat="44.36326" lon="3.74399">
        <ele>870.8</ele>
        <time>2022-08-08T10:40:40Z</time>
      </trkpt>
      <trkpt lat="44.36328" lon="3.74387">
        <ele>870.6</ele>
        <time>2022-08-08T10:40:51Z</time>
      </trkpt>
      <trkpt lat="44.36328" lon="3.74385">
        <ele>870.6</ele>
        <time>2022-08-08T10:40:53Z</time>
      </trkpt>
      <trkpt lat="44.3633" lon="3.74373">
        <ele>870.4</ele>
        <time>2022-08-08T10:41:06Z</time>
      </trkpt>
      <trkpt lat="44.3633" lon="3.74372">
        <ele>870.4</ele>
        <time>2022-08-08T10:41:07Z</time>
      </trkpt>
      <trkpt lat="44.3633" lon="3.74371">
        <ele>870.6</ele>
        <time>2022-08-08T10:41:08Z</time>
      </trkpt>
      <trkpt lat="44.36328" lon="3.74365">
        <ele>870.6</ele>
        <time>2022-08-08T10:41:19Z</time>
      </trkpt>
      <trkpt lat="44.36322" lon="3.74354">
        <ele>871.4</ele>
        <time>2022-08-08T10:41:33Z</time>
      </trkpt>
      <trkpt lat="44.36319" lon="3.74352">
        <ele>871.6</ele>
        <time>2022-08-08T10:41:38Z</time>
      </trkpt>
      <trkpt lat="44.36319" lon="3.7435">
        <ele>871.6</ele>
        <time>2022-08-08T10:41:42Z</time>
      </trkpt>
      <trkpt lat="44.36317" lon="3.74349">
        <ele>872.2</ele>
        <time>2022-08-08T10:41:48Z</time>
      </trkpt>
      <trkpt lat="44.36317" lon="3.7435">
        <ele>872.4</ele>
        <time>2022-08-08T10:41:53Z</time>
      </trkpt>
      <trkpt lat="44.36318" lon="3.74349">
        <ele>872</ele>
        <time>2022-08-08T10:42:04Z</time>
      </trkpt>
      <trkpt lat="44.36318" lon="3.7435">
        <ele>872</ele>
        <time>2022-08-08T10:42:22Z</time>
      </trkpt>
      <trkpt lat="44.36317" lon="3.74352">
        <ele>871.8</ele>
        <time>2022-08-08T10:43:02Z</time>
      </trkpt>
      <trkpt lat="44.36317" lon="3.74352">
        <ele>871.4</ele>
        <time>2022-08-08T10:43:04Z</time>
      </trkpt>
      <trkpt lat="44.36317" lon="3.74352">
        <ele>871</ele>
        <time>2022-08-08T10:43:29Z</time>
      </trkpt>
      <trkpt lat="44.36316" lon="3.74352">
        <ele>871</ele>
        <time>2022-08-08T10:43:34Z</time>
      </trkpt>
      <trkpt lat="44.36309" lon="3.74348">
        <ele>870</ele>
        <time>2022-08-08T10:44:02Z</time>
      </trkpt>
      <trkpt lat="44.36309" lon="3.74348">
        <ele>870</ele>
        <time>2022-08-08T10:44:05Z</time>
      </trkpt>
      <trkpt lat="44.36305" lon="3.74347">
        <ele>870</ele>
        <time>2022-08-08T10:44:17Z</time>
      </trkpt>
      <trkpt lat="44.36299" lon="3.74345">
        <ele>869.6</ele>
        <time>2022-08-08T10:44:24Z</time>
      </trkpt>
      <trkpt lat="44.36296" lon="3.74346">
        <ele>869.4</ele>
        <time>2022-08-08T10:44:27Z</time>
      </trkpt>
      <trkpt lat="44.36295" lon="3.74347">
        <ele>869.4</ele>
        <time>2022-08-08T10:44:28Z</time>
      </trkpt>
      <trkpt lat="44.36294" lon="3.74347">
        <ele>869.2</ele>
        <time>2022-08-08T10:44:29Z</time>
      </trkpt>
      <trkpt lat="44.36291" lon="3.74349">
        <ele>869.2</ele>
        <time>2022-08-08T10:44:33Z</time>
      </trkpt>
      <trkpt lat="44.36287" lon="3.74351">
        <ele>869.6</ele>
        <time>2022-08-08T10:44:38Z</time>
      </trkpt>
      <trkpt lat="44.36286" lon="3.74351">
        <ele>869.6</ele>
        <time>2022-08-08T10:44:39Z</time>
      </trkpt>
      <trkpt lat="44.36286" lon="3.74351">
        <ele>869.8</ele>
        <time>2022-08-08T10:44:40Z</time>
      </trkpt>
      <trkpt lat="44.36283" lon="3.74351">
        <ele>869.6</ele>
        <time>2022-08-08T10:44:45Z</time>
      </trkpt>
      <trkpt lat="44.36283" lon="3.74352">
        <ele>869.6</ele>
        <time>2022-08-08T10:44:47Z</time>
      </trkpt>
      <trkpt lat="44.36283" lon="3.74352">
        <ele>869.6</ele>
        <time>2022-08-08T10:44:53Z</time>
      </trkpt>
      <trkpt lat="44.36292" lon="3.74354">
        <ele>869.6</ele>
        <time>2022-08-08T10:45:06Z</time>
      </trkpt>
      <trkpt lat="44.36298" lon="3.74348">
        <ele>869</ele>
        <time>2022-08-08T10:45:16Z</time>
      </trkpt>
      <trkpt lat="44.36299" lon="3.74349">
        <ele>869</ele>
        <time>2022-08-08T10:45:17Z</time>
      </trkpt>
      <trkpt lat="44.36306" lon="3.74347">
        <ele>869.8</ele>
        <time>2022-08-08T10:45:28Z</time>
      </trkpt>
      <trkpt lat="44.36306" lon="3.74345">
        <ele>869.8</ele>
        <time>2022-08-08T10:45:31Z</time>
      </trkpt>
      <trkpt lat="44.36295" lon="3.74344">
        <ele>869.6</ele>
        <time>2022-08-08T10:45:45Z</time>
      </trkpt>
      <trkpt lat="44.36297" lon="3.74343">
        <ele>869.6</ele>
        <time>2022-08-08T10:45:59Z</time>
      </trkpt>
      <trkpt lat="44.36291" lon="3.7434">
        <ele>869</ele>
        <time>2022-08-08T10:46:14Z</time>
      </trkpt>
      <trkpt lat="44.36288" lon="3.74349">
        <ele>869</ele>
        <time>2022-08-08T10:46:25Z</time>
      </trkpt>
      <trkpt lat="44.36283" lon="3.74365">
        <ele>869.8</ele>
        <time>2022-08-08T10:46:37Z</time>
      </trkpt>
      <trkpt lat="44.36283" lon="3.74369">
        <ele>869.8</ele>
        <time>2022-08-08T10:46:40Z</time>
      </trkpt>
      <trkpt lat="44.36273" lon="3.74385">
        <ele>871</ele>
        <time>2022-08-08T10:46:56Z</time>
      </trkpt>
      <trkpt lat="44.36269" lon="3.744">
        <ele>871.4</ele>
        <time>2022-08-08T10:47:10Z</time>
      </trkpt>
      <trkpt lat="44.36261" lon="3.74415">
        <ele>871.2</ele>
        <time>2022-08-08T10:47:24Z</time>
      </trkpt>
      <trkpt lat="44.36258" lon="3.74423">
        <ele>871</ele>
        <time>2022-08-08T10:47:34Z</time>
      </trkpt>
      <trkpt lat="44.36258" lon="3.74423">
        <ele>871</ele>
        <time>2022-08-08T10:47:35Z</time>
      </trkpt>
      <trkpt lat="44.36258" lon="3.7442">
        <ele>871</ele>
        <time>2022-08-08T10:47:43Z</time>
      </trkpt>
      <trkpt lat="44.36259" lon="3.74422">
        <ele>870.8</ele>
        <time>2022-08-08T10:47:56Z</time>
      </trkpt>
      <trkpt lat="44.36262" lon="3.74422">
        <ele>871.2</ele>
        <time>2022-08-08T10:48:11Z</time>
      </trkpt>
      <trkpt lat="44.36261" lon="3.74417">
        <ele>871.2</ele>
        <time>2022-08-08T10:48:29Z</time>
      </trkpt>
      <trkpt lat="44.36256" lon="3.74419">
        <ele>871</ele>
        <time>2022-08-08T10:48:42Z</time>
      </trkpt>
      <trkpt lat="44.36246" lon="3.74423">
        <ele>871.4</ele>
        <time>2022-08-08T10:48:51Z</time>
      </trkpt>
      <trkpt lat="44.3624" lon="3.74426">
        <ele>871.4</ele>
        <time>2022-08-08T10:48:56Z</time>
      </trkpt>
      <trkpt lat="44.36233" lon="3.74435">
        <ele>872.2</ele>
        <time>2022-08-08T10:49:05Z</time>
      </trkpt>
      <trkpt lat="44.36232" lon="3.74436">
        <ele>872.4</ele>
        <time>2022-08-08T10:49:07Z</time>
      </trkpt>
      <trkpt lat="44.36231" lon="3.7444">
        <ele>872.6</ele>
        <time>2022-08-08T10:49:12Z</time>
      </trkpt>
      <trkpt lat="44.36233" lon="3.7444">
        <ele>873</ele>
        <time>2022-08-08T10:49:18Z</time>
      </trkpt>
      <trkpt lat="44.36233" lon="3.7444">
        <ele>873.2</ele>
        <time>2022-08-08T10:49:20Z</time>
      </trkpt>
      <trkpt lat="44.36232" lon="3.74441">
        <ele>872.8</ele>
        <time>2022-08-08T10:49:32Z</time>
      </trkpt>
      <trkpt lat="44.36225" lon="3.74447">
        <ele>872.4</ele>
        <time>2022-08-08T10:49:43Z</time>
      </trkpt>
      <trkpt lat="44.36224" lon="3.74445">
        <ele>872.8</ele>
        <time>2022-08-08T10:49:47Z</time>
      </trkpt>
      <trkpt lat="44.36223" lon="3.74444">
        <ele>873</ele>
        <time>2022-08-08T10:49:53Z</time>
      </trkpt>
      <trkpt lat="44.36222" lon="3.74449">
        <ele>872.4</ele>
        <time>2022-08-08T10:50:06Z</time>
      </trkpt>
      <trkpt lat="44.36222" lon="3.74456">
        <ele>872.4</ele>
        <time>2022-08-08T10:50:11Z</time>
      </trkpt>
      <trkpt lat="44.36221" lon="3.74466">
        <ele>872.8</ele>
        <time>2022-08-08T10:50:18Z</time>
      </trkpt>
      <trkpt lat="44.36215" lon="3.74482">
        <ele>873.8</ele>
        <time>2022-08-08T10:50:33Z</time>
      </trkpt>
      <trkpt lat="44.36213" lon="3.74484">
        <ele>874.2</ele>
        <time>2022-08-08T10:50:36Z</time>
      </trkpt>
      <trkpt lat="44.36209" lon="3.74493">
        <ele>875</ele>
        <time>2022-08-08T10:50:45Z</time>
      </trkpt>
      <trkpt lat="44.36207" lon="3.74496">
        <ele>875.2</ele>
        <time>2022-08-08T10:50:48Z</time>
      </trkpt>
      <trkpt lat="44.36205" lon="3.745">
        <ele>876</ele>
        <time>2022-08-08T10:50:55Z</time>
      </trkpt>
      <trkpt lat="44.36205" lon="3.74501">
        <ele>876.2</ele>
        <time>2022-08-08T10:50:57Z</time>
      </trkpt>
      <trkpt lat="44.362" lon="3.7451">
        <ele>876.6</ele>
        <time>2022-08-08T10:51:06Z</time>
      </trkpt>
      <trkpt lat="44.36197" lon="3.74517">
        <ele>877.4</ele>
        <time>2022-08-08T10:51:12Z</time>
      </trkpt>
      <trkpt lat="44.36194" lon="3.7453">
        <ele>877.8</ele>
        <time>2022-08-08T10:51:21Z</time>
      </trkpt>
      <trkpt lat="44.36191" lon="3.7454">
        <ele>878.4</ele>
        <time>2022-08-08T10:51:28Z</time>
      </trkpt>
      <trkpt lat="44.3619" lon="3.74551">
        <ele>878.8</ele>
        <time>2022-08-08T10:51:37Z</time>
      </trkpt>
      <trkpt lat="44.3619" lon="3.74555">
        <ele>879.4</ele>
        <time>2022-08-08T10:51:42Z</time>
      </trkpt>
      <trkpt lat="44.3619" lon="3.74556">
        <ele>879.4</ele>
        <time>2022-08-08T10:51:43Z</time>
      </trkpt>
      <trkpt lat="44.36189" lon="3.74557">
        <ele>879.4</ele>
        <time>2022-08-08T10:51:45Z</time>
      </trkpt>
      <trkpt lat="44.36188" lon="3.74559">
        <ele>879.4</ele>
        <time>2022-08-08T10:51:47Z</time>
      </trkpt>
      <trkpt lat="44.36187" lon="3.74565">
        <ele>880</ele>
        <time>2022-08-08T10:52:00Z</time>
      </trkpt>
      <trkpt lat="44.36191" lon="3.74559">
        <ele>879.4</ele>
        <time>2022-08-08T10:52:10Z</time>
      </trkpt>
      <trkpt lat="44.36188" lon="3.74551">
        <ele>878.6</ele>
        <time>2022-08-08T10:52:19Z</time>
      </trkpt>
      <trkpt lat="44.36189" lon="3.74548">
        <ele>878.4</ele>
        <time>2022-08-08T10:52:35Z</time>
      </trkpt>
      <trkpt lat="44.36191" lon="3.7454">
        <ele>878.2</ele>
        <time>2022-08-08T10:52:45Z</time>
      </trkpt>
      <trkpt lat="44.36191" lon="3.74537">
        <ele>878.2</ele>
        <time>2022-08-08T10:52:48Z</time>
      </trkpt>
      <trkpt lat="44.36194" lon="3.74526">
        <ele>877.8</ele>
        <time>2022-08-08T10:52:58Z</time>
      </trkpt>
      <trkpt lat="44.36195" lon="3.74523">
        <ele>877.8</ele>
        <time>2022-08-08T10:53:01Z</time>
      </trkpt>
      <trkpt lat="44.36196" lon="3.74513">
        <ele>877.2</ele>
        <time>2022-08-08T10:53:09Z</time>
      </trkpt>
      <trkpt lat="44.36198" lon="3.74507">
        <ele>877</ele>
        <time>2022-08-08T10:53:14Z</time>
      </trkpt>
      <trkpt lat="44.36204" lon="3.74495">
        <ele>876.2</ele>
        <time>2022-08-08T10:53:27Z</time>
      </trkpt>
      <trkpt lat="44.36204" lon="3.74494">
        <ele>876.2</ele>
        <time>2022-08-08T10:53:28Z</time>
      </trkpt>
      <trkpt lat="44.36209" lon="3.74488">
        <ele>875.2</ele>
        <time>2022-08-08T10:53:36Z</time>
      </trkpt>
      <trkpt lat="44.36214" lon="3.74481">
        <ele>874.6</ele>
        <time>2022-08-08T10:53:43Z</time>
      </trkpt>
      <trkpt lat="44.36218" lon="3.74476">
        <ele>874.2</ele>
        <time>2022-08-08T10:53:49Z</time>
      </trkpt>
      <trkpt lat="44.36223" lon="3.74468">
        <ele>873.4</ele>
        <time>2022-08-08T10:53:58Z</time>
      </trkpt>
      <trkpt lat="44.36223" lon="3.74465">
        <ele>873.2</ele>
        <time>2022-08-08T10:54:01Z</time>
      </trkpt>
      <trkpt lat="44.36222" lon="3.74452">
        <ele>872.6</ele>
        <time>2022-08-08T10:54:11Z</time>
      </trkpt>
      <trkpt lat="44.36222" lon="3.74449">
        <ele>872.6</ele>
        <time>2022-08-08T10:54:15Z</time>
      </trkpt>
      <trkpt lat="44.36222" lon="3.74448">
        <ele>872.8</ele>
        <time>2022-08-08T10:54:20Z</time>
      </trkpt>
      <trkpt lat="44.36225" lon="3.74439">
        <ele>872.4</ele>
        <time>2022-08-08T10:54:30Z</time>
      </trkpt>
      <trkpt lat="44.36234" lon="3.74423">
        <ele>872.4</ele>
        <time>2022-08-08T10:54:43Z</time>
      </trkpt>
      <trkpt lat="44.36237" lon="3.7442">
        <ele>872</ele>
        <time>2022-08-08T10:54:47Z</time>
      </trkpt>
      <trkpt lat="44.36246" lon="3.74418">
        <ele>871.4</ele>
        <time>2022-08-08T10:54:56Z</time>
      </trkpt>
      <trkpt lat="44.36247" lon="3.74418">
        <ele>871.4</ele>
        <time>2022-08-08T10:54:57Z</time>
      </trkpt>
      <trkpt lat="44.36254" lon="3.74415">
        <ele>871</ele>
        <time>2022-08-08T10:55:04Z</time>
      </trkpt>
      <trkpt lat="44.36261" lon="3.74412">
        <ele>871</ele>
        <time>2022-08-08T10:55:11Z</time>
      </trkpt>
      <trkpt lat="44.36268" lon="3.74397">
        <ele>871.6</ele>
        <time>2022-08-08T10:55:25Z</time>
      </trkpt>
      <trkpt lat="44.3627" lon="3.74392">
        <ele>872</ele>
        <time>2022-08-08T10:55:30Z</time>
      </trkpt>
      <trkpt lat="44.36274" lon="3.74385">
        <ele>872.2</ele>
        <time>2022-08-08T10:55:36Z</time>
      </trkpt>
      <trkpt lat="44.36284" lon="3.74373">
        <ele>871.4</ele>
        <time>2022-08-08T10:55:48Z</time>
      </trkpt>
      <trkpt lat="44.36285" lon="3.74367">
        <ele>871.2</ele>
        <time>2022-08-08T10:55:57Z</time>
      </trkpt>
      <trkpt lat="44.36286" lon="3.74363">
        <ele>871</ele>
        <time>2022-08-08T10:56:03Z</time>
      </trkpt>
      <trkpt lat="44.36286" lon="3.74362">
        <ele>870.8</ele>
        <time>2022-08-08T10:56:04Z</time>
      </trkpt>
      <trkpt lat="44.36288" lon="3.74358">
        <ele>870.6</ele>
        <time>2022-08-08T10:56:08Z</time>
      </trkpt>
      <trkpt lat="44.3629" lon="3.74352">
        <ele>870.4</ele>
        <time>2022-08-08T10:56:17Z</time>
      </trkpt>
      <trkpt lat="44.36288" lon="3.7435">
        <ele>869.4</ele>
        <time>2022-08-08T10:56:19Z</time>
      </trkpt>
      <trkpt lat="44.36291" lon="3.74335">
        <ele>869</ele>
        <time>2022-08-08T10:56:31Z</time>
      </trkpt>
      <trkpt lat="44.36289" lon="3.74332">
        <ele>868.8</ele>
        <time>2022-08-08T10:56:33Z</time>
      </trkpt>
      <trkpt lat="44.36289" lon="3.74328">
        <ele>868.6</ele>
        <time>2022-08-08T10:56:37Z</time>
      </trkpt>
      <trkpt lat="44.36288" lon="3.74322">
        <ele>868.8</ele>
        <time>2022-08-08T10:56:44Z</time>
      </trkpt>
      <trkpt lat="44.36294" lon="3.74327">
        <ele>868.8</ele>
        <time>2022-08-08T10:57:09Z</time>
      </trkpt>
      <trkpt lat="44.36278" lon="3.74322">
        <ele>868.8</ele>
        <time>2022-08-08T10:57:27Z</time>
      </trkpt>
      <trkpt lat="44.36278" lon="3.74326">
        <ele>869.4</ele>
        <time>2022-08-08T10:57:45Z</time>
      </trkpt>
      <trkpt lat="44.36282" lon="3.74327">
        <ele>869.4</ele>
        <time>2022-08-08T10:58:01Z</time>
      </trkpt>
      <trkpt lat="44.36287" lon="3.74317">
        <ele>869.2</ele>
        <time>2022-08-08T10:58:10Z</time>
      </trkpt>
      <trkpt lat="44.36288" lon="3.74316">
        <ele>869</ele>
        <time>2022-08-08T10:58:11Z</time>
      </trkpt>
      <trkpt lat="44.36289" lon="3.74315">
        <ele>868.8</ele>
        <time>2022-08-08T10:58:12Z</time>
      </trkpt>
      <trkpt lat="44.36295" lon="3.74303">
        <ele>868.4</ele>
        <time>2022-08-08T10:58:23Z</time>
      </trkpt>
      <trkpt lat="44.36297" lon="3.74298">
        <ele>868.4</ele>
        <time>2022-08-08T10:58:28Z</time>
      </trkpt>
      <trkpt lat="44.3631" lon="3.7429">
        <ele>868.8</ele>
        <time>2022-08-08T10:58:40Z</time>
      </trkpt>
      <trkpt lat="44.36316" lon="3.74284">
        <ele>869.4</ele>
        <time>2022-08-08T10:58:52Z</time>
      </trkpt>
      <trkpt lat="44.36318" lon="3.74278">
        <ele>869.4</ele>
        <time>2022-08-08T10:59:06Z</time>
      </trkpt>
      <trkpt lat="44.36319" lon="3.74278">
        <ele>869.4</ele>
        <time>2022-08-08T10:59:09Z</time>
      </trkpt>
      <trkpt lat="44.36319" lon="3.74278">
        <ele>869.6</ele>
        <time>2022-08-08T10:59:23Z</time>
      </trkpt>
      <trkpt lat="44.36316" lon="3.74276">
        <ele>869.6</ele>
        <time>2022-08-08T10:59:41Z</time>
      </trkpt>
      <trkpt lat="44.36312" lon="3.74279">
        <ele>869.4</ele>
        <time>2022-08-08T10:59:51Z</time>
      </trkpt>
      <trkpt lat="44.36309" lon="3.74282">
        <ele>869</ele>
        <time>2022-08-08T10:59:56Z</time>
      </trkpt>
      <trkpt lat="44.36307" lon="3.74285">
        <ele>869</ele>
        <time>2022-08-08T10:59:59Z</time>
      </trkpt>
      <trkpt lat="44.36305" lon="3.74288">
        <ele>868.8</ele>
        <time>2022-08-08T11:00:02Z</time>
      </trkpt>
      <trkpt lat="44.36302" lon="3.74292">
        <ele>868.6</ele>
        <time>2022-08-08T11:00:06Z</time>
      </trkpt>
      <trkpt lat="44.36297" lon="3.74302">
        <ele>868.4</ele>
        <time>2022-08-08T11:00:15Z</time>
      </trkpt>
      <trkpt lat="44.36296" lon="3.74305">
        <ele>868.8</ele>
        <time>2022-08-08T11:00:19Z</time>
      </trkpt>
      <trkpt lat="44.36295" lon="3.74305">
        <ele>869</ele>
        <time>2022-08-08T11:00:20Z</time>
      </trkpt>
      <trkpt lat="44.36296" lon="3.74306">
        <ele>869</ele>
        <time>2022-08-08T11:00:23Z</time>
      </trkpt>
      <trkpt lat="44.36296" lon="3.74312">
        <ele>868.6</ele>
        <time>2022-08-08T11:00:29Z</time>
      </trkpt>
      <trkpt lat="44.36295" lon="3.74313">
        <ele>868.6</ele>
        <time>2022-08-08T11:00:30Z</time>
      </trkpt>
      <trkpt lat="44.36293" lon="3.7432">
        <ele>868.8</ele>
        <time>2022-08-08T11:00:37Z</time>
      </trkpt>
      <trkpt lat="44.36293" lon="3.74323">
        <ele>868.6</ele>
        <time>2022-08-08T11:00:39Z</time>
      </trkpt>
      <trkpt lat="44.36289" lon="3.74331">
        <ele>868.8</ele>
        <time>2022-08-08T11:00:46Z</time>
      </trkpt>
      <trkpt lat="44.36284" lon="3.74341">
        <ele>868.8</ele>
        <time>2022-08-08T11:00:57Z</time>
      </trkpt>
      <trkpt lat="44.36291" lon="3.74345">
        <ele>868.8</ele>
        <time>2022-08-08T11:00:59Z</time>
      </trkpt>
      <trkpt lat="44.36293" lon="3.74347">
        <ele>868.8</ele>
        <time>2022-08-08T11:01:00Z</time>
      </trkpt>
      <trkpt lat="44.36296" lon="3.74348">
        <ele>869.2</ele>
        <time>2022-08-08T11:01:03Z</time>
      </trkpt>
      <trkpt lat="44.363" lon="3.74346">
        <ele>869.2</ele>
        <time>2022-08-08T11:01:07Z</time>
      </trkpt>
      <trkpt lat="44.363" lon="3.74347">
        <ele>869.2</ele>
        <time>2022-08-08T11:01:08Z</time>
      </trkpt>
      <trkpt lat="44.36301" lon="3.74348">
        <ele>869.4</ele>
        <time>2022-08-08T11:01:10Z</time>
      </trkpt>
      <trkpt lat="44.36311" lon="3.74352">
        <ele>870.2</ele>
        <time>2022-08-08T11:01:21Z</time>
      </trkpt>
      <trkpt lat="44.36314" lon="3.74352">
        <ele>870.6</ele>
        <time>2022-08-08T11:01:24Z</time>
      </trkpt>
      <trkpt lat="44.36319" lon="3.74353">
        <ele>871</ele>
        <time>2022-08-08T11:01:31Z</time>
      </trkpt>
      <trkpt lat="44.36319" lon="3.74353">
        <ele>871</ele>
        <time>2022-08-08T11:01:33Z</time>
      </trkpt>
      <trkpt lat="44.3632" lon="3.74353">
        <ele>871</ele>
        <time>2022-08-08T11:01:34Z</time>
      </trkpt>
      <trkpt lat="44.36325" lon="3.74358">
        <ele>870.8</ele>
        <time>2022-08-08T11:01:42Z</time>
      </trkpt>
      <trkpt lat="44.36329" lon="3.74359">
        <ele>870.6</ele>
        <time>2022-08-08T11:01:53Z</time>
      </trkpt>
      <trkpt lat="44.36335" lon="3.74352">
        <ele>870.6</ele>
        <time>2022-08-08T11:02:08Z</time>
      </trkpt>
      <trkpt lat="44.36332" lon="3.7436">
        <ele>870.8</ele>
        <time>2022-08-08T11:02:23Z</time>
      </trkpt>
      <trkpt lat="44.36331" lon="3.74365">
        <ele>870.6</ele>
        <time>2022-08-08T11:02:26Z</time>
      </trkpt>
      <trkpt lat="44.36331" lon="3.74367">
        <ele>870.4</ele>
        <time>2022-08-08T11:02:36Z</time>
      </trkpt>
      <trkpt lat="44.36337" lon="3.74364">
        <ele>870.4</ele>
        <time>2022-08-08T11:02:44Z</time>
      </trkpt>
      <trkpt lat="44.3634" lon="3.74363">
        <ele>870.4</ele>
        <time>2022-08-08T11:02:47Z</time>
      </trkpt>
      <trkpt lat="44.36351" lon="3.74355">
        <ele>871</ele>
        <time>2022-08-08T11:03:02Z</time>
      </trkpt>
      <trkpt lat="44.36352" lon="3.74354">
        <ele>871.2</ele>
        <time>2022-08-08T11:03:04Z</time>
      </trkpt>
      <trkpt lat="44.36352" lon="3.74355">
        <ele>871.6</ele>
        <time>2022-08-08T11:03:06Z</time>
      </trkpt>
      <trkpt lat="44.36351" lon="3.74355">
        <ele>872.2</ele>
        <time>2022-08-08T11:03:10Z</time>
      </trkpt>
      <trkpt lat="44.3635" lon="3.74357">
        <ele>871.6</ele>
        <time>2022-08-08T11:03:23Z</time>
      </trkpt>
      <trkpt lat="44.36351" lon="3.74357">
        <ele>872.2</ele>
        <time>2022-08-08T11:03:34Z</time>
      </trkpt>
      <trkpt lat="44.36351" lon="3.74352">
        <ele>871.4</ele>
        <time>2022-08-08T11:03:43Z</time>
      </trkpt>
      <trkpt lat="44.36348" lon="3.7435">
        <ele>871.6</ele>
        <time>2022-08-08T11:03:53Z</time>
      </trkpt>
      <trkpt lat="44.36351" lon="3.74346">
        <ele>871.4</ele>
        <time>2022-08-08T11:04:08Z</time>
      </trkpt>
      <trkpt lat="44.36355" lon="3.74345">
        <ele>871.2</ele>
        <time>2022-08-08T11:04:14Z</time>
      </trkpt>
      <trkpt lat="44.36357" lon="3.74343">
        <ele>871.2</ele>
        <time>2022-08-08T11:04:17Z</time>
      </trkpt>
      <trkpt lat="44.36358" lon="3.74342">
        <ele>871.2</ele>
        <time>2022-08-08T11:04:19Z</time>
      </trkpt>
      <trkpt lat="44.3636" lon="3.74342">
        <ele>871.2</ele>
        <time>2022-08-08T11:04:21Z</time>
      </trkpt>
      <trkpt lat="44.36361" lon="3.74343">
        <ele>871</ele>
        <time>2022-08-08T11:04:23Z</time>
      </trkpt>
      <trkpt lat="44.36363" lon="3.74344">
        <ele>871</ele>
        <time>2022-08-08T11:04:25Z</time>
      </trkpt>
      <trkpt lat="44.36364" lon="3.74345">
        <ele>870.8</ele>
        <time>2022-08-08T11:04:27Z</time>
      </trkpt>
      <trkpt lat="44.36365" lon="3.74345">
        <ele>870.8</ele>
        <time>2022-08-08T11:04:30Z</time>
      </trkpt>
      <trkpt lat="44.36367" lon="3.74345">
        <ele>871</ele>
        <time>2022-08-08T11:04:37Z</time>
      </trkpt>
      <trkpt lat="44.36372" lon="3.74336">
        <ele>871</ele>
        <time>2022-08-08T11:04:48Z</time>
      </trkpt>
      <trkpt lat="44.36375" lon="3.74331">
        <ele>871</ele>
        <time>2022-08-08T11:04:54Z</time>
      </trkpt>
      <trkpt lat="44.36377" lon="3.74328">
        <ele>871.2</ele>
        <time>2022-08-08T11:04:58Z</time>
      </trkpt>
      <trkpt lat="44.36376" lon="3.74325">
        <ele>871.2</ele>
        <time>2022-08-08T11:05:01Z</time>
      </trkpt>
      <trkpt lat="44.36375" lon="3.74321">
        <ele>871.4</ele>
        <time>2022-08-08T11:05:03Z</time>
      </trkpt>
      <trkpt lat="44.36374" lon="3.74316">
        <ele>871.6</ele>
        <time>2022-08-08T11:05:06Z</time>
      </trkpt>
      <trkpt lat="44.36373" lon="3.74313">
        <ele>871.6</ele>
        <time>2022-08-08T11:05:08Z</time>
      </trkpt>
      <trkpt lat="44.36371" lon="3.74307">
        <ele>872</ele>
        <time>2022-08-08T11:05:13Z</time>
      </trkpt>
      <trkpt lat="44.3637" lon="3.74305">
        <ele>872</ele>
        <time>2022-08-08T11:05:19Z</time>
      </trkpt>
      <trkpt lat="44.36372" lon="3.74302">
        <ele>872</ele>
        <time>2022-08-08T11:05:22Z</time>
      </trkpt>
      <trkpt lat="44.36372" lon="3.74301">
        <ele>872</ele>
        <time>2022-08-08T11:05:24Z</time>
      </trkpt>
      <trkpt lat="44.36372" lon="3.74295">
        <ele>871.8</ele>
        <time>2022-08-08T11:05:32Z</time>
      </trkpt>
      <trkpt lat="44.36377" lon="3.74283">
        <ele>872</ele>
        <time>2022-08-08T11:05:44Z</time>
      </trkpt>
      <trkpt lat="44.36379" lon="3.74281">
        <ele>872</ele>
        <time>2022-08-08T11:05:46Z</time>
      </trkpt>
      <trkpt lat="44.36379" lon="3.74281">
        <ele>872</ele>
        <time>2022-08-08T11:05:47Z</time>
      </trkpt>
      <trkpt lat="44.36379" lon="3.7428">
        <ele>872</ele>
        <time>2022-08-08T11:05:49Z</time>
      </trkpt>
      <trkpt lat="44.36385" lon="3.74276">
        <ele>872.4</ele>
        <time>2022-08-08T11:05:58Z</time>
      </trkpt>
      <trkpt lat="44.36386" lon="3.74276">
        <ele>872.8</ele>
        <time>2022-08-08T11:06:00Z</time>
      </trkpt>
      <trkpt lat="44.36389" lon="3.74274">
        <ele>873.8</ele>
        <time>2022-08-08T11:06:05Z</time>
      </trkpt>
      <trkpt lat="44.3639" lon="3.74271">
        <ele>874.6</ele>
        <time>2022-08-08T11:06:08Z</time>
      </trkpt>
      <trkpt lat="44.3639" lon="3.74271">
        <ele>874.8</ele>
        <time>2022-08-08T11:06:10Z</time>
      </trkpt>
      <trkpt lat="44.36392" lon="3.74272">
        <ele>876</ele>
        <time>2022-08-08T11:06:16Z</time>
      </trkpt>
      <trkpt lat="44.36394" lon="3.74272">
        <ele>876.6</ele>
        <time>2022-08-08T11:06:19Z</time>
      </trkpt>
      <trkpt lat="44.36399" lon="3.7427">
        <ele>877</ele>
        <time>2022-08-08T11:06:25Z</time>
      </trkpt>
      <trkpt lat="44.36401" lon="3.74268">
        <ele>877.2</ele>
        <time>2022-08-08T11:06:28Z</time>
      </trkpt>
      <trkpt lat="44.36412" lon="3.74264">
        <ele>877.6</ele>
        <time>2022-08-08T11:06:43Z</time>
      </trkpt>
      <trkpt lat="44.36413" lon="3.74265">
        <ele>878.2</ele>
        <time>2022-08-08T11:06:48Z</time>
      </trkpt>
      <trkpt lat="44.36414" lon="3.74266">
        <ele>878.2</ele>
        <time>2022-08-08T11:06:54Z</time>
      </trkpt>
      <trkpt lat="44.36415" lon="3.74267">
        <ele>877.2</ele>
        <time>2022-08-08T11:07:10Z</time>
      </trkpt>
      <trkpt lat="44.36414" lon="3.74267">
        <ele>877.2</ele>
        <time>2022-08-08T11:07:12Z</time>
      </trkpt>
      <trkpt lat="44.36416" lon="3.74268">
        <ele>877.6</ele>
        <time>2022-08-08T11:07:31Z</time>
      </trkpt>
      <trkpt lat="44.36413" lon="3.7427">
        <ele>876.6</ele>
        <time>2022-08-08T11:07:48Z</time>
      </trkpt>
      <trkpt lat="44.36412" lon="3.74269">
        <ele>876.2</ele>
        <time>2022-08-08T11:08:06Z</time>
      </trkpt>
      <trkpt lat="44.36408" lon="3.7427">
        <ele>876.2</ele>
        <time>2022-08-08T11:08:23Z</time>
      </trkpt>
      <trkpt lat="44.36407" lon="3.7427">
        <ele>876.2</ele>
        <time>2022-08-08T11:08:43Z</time>
      </trkpt>
      <trkpt lat="44.36406" lon="3.74271">
        <ele>876.4</ele>
        <time>2022-08-08T11:09:00Z</time>
      </trkpt>
      <trkpt lat="44.36409" lon="3.74268">
        <ele>876.4</ele>
        <time>2022-08-08T11:09:21Z</time>
      </trkpt>
      <trkpt lat="44.36409" lon="3.74269">
        <ele>876.2</ele>
        <time>2022-08-08T11:09:32Z</time>
      </trkpt>
      <trkpt lat="44.3641" lon="3.74271">
        <ele>876.4</ele>
        <time>2022-08-08T11:09:42Z</time>
      </trkpt>
      <trkpt lat="44.36409" lon="3.74266">
        <ele>876.4</ele>
        <time>2022-08-08T11:09:59Z</time>
      </trkpt>
      <trkpt lat="44.36412" lon="3.74264">
        <ele>876.6</ele>
        <time>2022-08-08T11:10:19Z</time>
      </trkpt>
      <trkpt lat="44.36416" lon="3.74265">
        <ele>876.6</ele>
        <time>2022-08-08T11:10:41Z</time>
      </trkpt>
      <trkpt lat="44.3642" lon="3.74267">
        <ele>876.8</ele>
        <time>2022-08-08T11:10:58Z</time>
      </trkpt>
      <trkpt lat="44.36412" lon="3.74271">
        <ele>876.4</ele>
        <time>2022-08-08T11:11:14Z</time>
      </trkpt>
      <trkpt lat="44.36417" lon="3.74262">
        <ele>878</ele>
        <time>2022-08-08T11:11:29Z</time>
      </trkpt>
      <trkpt lat="44.36417" lon="3.7426">
        <ele>878.2</ele>
        <time>2022-08-08T11:11:32Z</time>
      </trkpt>
      <trkpt lat="44.36416" lon="3.74256">
        <ele>878</ele>
        <time>2022-08-08T11:11:49Z</time>
      </trkpt>
      <trkpt lat="44.36417" lon="3.74257">
        <ele>878.4</ele>
        <time>2022-08-08T11:11:55Z</time>
      </trkpt>
      <trkpt lat="44.36419" lon="3.74258">
        <ele>878.6</ele>
        <time>2022-08-08T11:12:09Z</time>
      </trkpt>
      <trkpt lat="44.36419" lon="3.74262">
        <ele>878.8</ele>
        <time>2022-08-08T11:12:26Z</time>
      </trkpt>
      <trkpt lat="44.36416" lon="3.74264">
        <ele>879</ele>
        <time>2022-08-08T11:12:43Z</time>
      </trkpt>
      <trkpt lat="44.36409" lon="3.74267">
        <ele>878.8</ele>
        <time>2022-08-08T11:13:02Z</time>
      </trkpt>
      <trkpt lat="44.3641" lon="3.74266">
        <ele>878.6</ele>
        <time>2022-08-08T11:13:23Z</time>
      </trkpt>
      <trkpt lat="44.36407" lon="3.74267">
        <ele>878.8</ele>
        <time>2022-08-08T11:13:45Z</time>
      </trkpt>
      <trkpt lat="44.36402" lon="3.7427">
        <ele>877.2</ele>
        <time>2022-08-08T11:14:00Z</time>
      </trkpt>
      <trkpt lat="44.36402" lon="3.74269">
        <ele>877.2</ele>
        <time>2022-08-08T11:14:03Z</time>
      </trkpt>
      <trkpt lat="44.36409" lon="3.74267">
        <ele>878.8</ele>
        <time>2022-08-08T11:14:15Z</time>
      </trkpt>
      <trkpt lat="44.36411" lon="3.74268">
        <ele>878.8</ele>
        <time>2022-08-08T11:14:18Z</time>
      </trkpt>
      <trkpt lat="44.36412" lon="3.74269">
        <ele>880</ele>
        <time>2022-08-08T11:14:24Z</time>
      </trkpt>
      <trkpt lat="44.3641" lon="3.74267">
        <ele>880.2</ele>
        <time>2022-08-08T11:14:36Z</time>
      </trkpt>
      <trkpt lat="44.36407" lon="3.7427">
        <ele>880.4</ele>
        <time>2022-08-08T11:14:51Z</time>
      </trkpt>
      <trkpt lat="44.36405" lon="3.74277">
        <ele>880</ele>
        <time>2022-08-08T11:14:55Z</time>
      </trkpt>
      <trkpt lat="44.36402" lon="3.74286">
        <ele>880</ele>
        <time>2022-08-08T11:15:01Z</time>
      </trkpt>
      <trkpt lat="44.36399" lon="3.74304">
        <ele>879.8</ele>
        <time>2022-08-08T11:15:15Z</time>
      </trkpt>
      <trkpt lat="44.364" lon="3.74307">
        <ele>879.8</ele>
        <time>2022-08-08T11:15:19Z</time>
      </trkpt>
      <trkpt lat="44.364" lon="3.74307">
        <ele>879.6</ele>
        <time>2022-08-08T11:15:21Z</time>
      </trkpt>
      <trkpt lat="44.364" lon="3.74305">
        <ele>879.6</ele>
        <time>2022-08-08T11:15:24Z</time>
      </trkpt>
      <trkpt lat="44.36399" lon="3.743">
        <ele>879.6</ele>
        <time>2022-08-08T11:15:28Z</time>
      </trkpt>
      <trkpt lat="44.36398" lon="3.74292">
        <ele>879.6</ele>
        <time>2022-08-08T11:15:33Z</time>
      </trkpt>
      <trkpt lat="44.36395" lon="3.74274">
        <ele>879.2</ele>
        <time>2022-08-08T11:15:47Z</time>
      </trkpt>
      <trkpt lat="44.36394" lon="3.74273">
        <ele>878.8</ele>
        <time>2022-08-08T11:15:49Z</time>
      </trkpt>
      <trkpt lat="44.36393" lon="3.74273">
        <ele>878.2</ele>
        <time>2022-08-08T11:15:51Z</time>
      </trkpt>
      <trkpt lat="44.36391" lon="3.74273">
        <ele>877.8</ele>
        <time>2022-08-08T11:15:53Z</time>
      </trkpt>
      <trkpt lat="44.36391" lon="3.74273">
        <ele>877.6</ele>
        <time>2022-08-08T11:15:54Z</time>
      </trkpt>
      <trkpt lat="44.36389" lon="3.74273">
        <ele>877.2</ele>
        <time>2022-08-08T11:15:57Z</time>
      </trkpt>
      <trkpt lat="44.36387" lon="3.74274">
        <ele>876.8</ele>
        <time>2022-08-08T11:15:59Z</time>
      </trkpt>
      <trkpt lat="44.36387" lon="3.74274">
        <ele>876.4</ele>
        <time>2022-08-08T11:16:00Z</time>
      </trkpt>
      <trkpt lat="44.36386" lon="3.74274">
        <ele>876</ele>
        <time>2022-08-08T11:16:01Z</time>
      </trkpt>
      <trkpt lat="44.36385" lon="3.74275">
        <ele>875.4</ele>
        <time>2022-08-08T11:16:03Z</time>
      </trkpt>
      <trkpt lat="44.36384" lon="3.74275">
        <ele>875</ele>
        <time>2022-08-08T11:16:04Z</time>
      </trkpt>
      <trkpt lat="44.36384" lon="3.74276">
        <ele>874.6</ele>
        <time>2022-08-08T11:16:06Z</time>
      </trkpt>
      <trkpt lat="44.36382" lon="3.7428">
        <ele>874.2</ele>
        <time>2022-08-08T11:16:08Z</time>
      </trkpt>
      <trkpt lat="44.36382" lon="3.74282">
        <ele>874.2</ele>
        <time>2022-08-08T11:16:09Z</time>
      </trkpt>
      <trkpt lat="44.36382" lon="3.74282">
        <ele>874.2</ele>
        <time>2022-08-08T11:16:10Z</time>
      </trkpt>
      <trkpt lat="44.36375" lon="3.74303">
        <ele>874.2</ele>
        <time>2022-08-08T11:16:23Z</time>
      </trkpt>
      <trkpt lat="44.36375" lon="3.74313">
        <ele>874.6</ele>
        <time>2022-08-08T11:16:29Z</time>
      </trkpt>
      <trkpt lat="44.36376" lon="3.74325">
        <ele>874</ele>
        <time>2022-08-08T11:16:38Z</time>
      </trkpt>
      <trkpt lat="44.36368" lon="3.74337">
        <ele>873.6</ele>
        <time>2022-08-08T11:16:49Z</time>
      </trkpt>
      <trkpt lat="44.36364" lon="3.7434">
        <ele>873.2</ele>
        <time>2022-08-08T11:16:52Z</time>
      </trkpt>
      <trkpt lat="44.36356" lon="3.74347">
        <ele>873.4</ele>
        <time>2022-08-08T11:17:02Z</time>
      </trkpt>
      <trkpt lat="44.36351" lon="3.74351">
        <ele>871.4</ele>
        <time>2022-08-08T11:17:07Z</time>
      </trkpt>
      <trkpt lat="44.36347" lon="3.74359">
        <ele>871.4</ele>
        <time>2022-08-08T11:17:13Z</time>
      </trkpt>
      <trkpt lat="44.36342" lon="3.74371">
        <ele>870.4</ele>
        <time>2022-08-08T11:17:25Z</time>
      </trkpt>
      <trkpt lat="44.36342" lon="3.74371">
        <ele>870.4</ele>
        <time>2022-08-08T11:17:27Z</time>
      </trkpt>
      <trkpt lat="44.36341" lon="3.74371">
        <ele>870.4</ele>
        <time>2022-08-08T11:17:30Z</time>
      </trkpt>
      <trkpt lat="44.36341" lon="3.74371">
        <ele>870.4</ele>
        <time>2022-08-08T11:17:31Z</time>
      </trkpt>
      <trkpt lat="44.36339" lon="3.74374">
        <ele>870.2</ele>
        <time>2022-08-08T11:17:36Z</time>
      </trkpt>
      <trkpt lat="44.36336" lon="3.74379">
        <ele>870.2</ele>
        <time>2022-08-08T11:17:43Z</time>
      </trkpt>
      <trkpt lat="44.36334" lon="3.74381">
        <ele>870.4</ele>
        <time>2022-08-08T11:17:45Z</time>
      </trkpt>
      <trkpt lat="44.36331" lon="3.74384">
        <ele>870.4</ele>
        <time>2022-08-08T11:17:50Z</time>
      </trkpt>
      <trkpt lat="44.36331" lon="3.74385">
        <ele>870.4</ele>
        <time>2022-08-08T11:17:51Z</time>
      </trkpt>
      <trkpt lat="44.36332" lon="3.74398">
        <ele>870.8</ele>
        <time>2022-08-08T11:18:04Z</time>
      </trkpt>
      <trkpt lat="44.36333" lon="3.74399">
        <ele>871.2</ele>
        <time>2022-08-08T11:18:07Z</time>
      </trkpt>
      <trkpt lat="44.36333" lon="3.74399">
        <ele>871.4</ele>
        <time>2022-08-08T11:18:08Z</time>
      </trkpt>
      <trkpt lat="44.36333" lon="3.74399">
        <ele>871.8</ele>
        <time>2022-08-08T11:18:09Z</time>
      </trkpt>
      <trkpt lat="44.36336" lon="3.74404">
        <ele>872.4</ele>
        <time>2022-08-08T11:18:16Z</time>
      </trkpt>
      <trkpt lat="44.36336" lon="3.74406">
        <ele>872.6</ele>
        <time>2022-08-08T11:18:17Z</time>
      </trkpt>
      <trkpt lat="44.36336" lon="3.74409">
        <ele>873.2</ele>
        <time>2022-08-08T11:18:20Z</time>
      </trkpt>
      <trkpt lat="44.36336" lon="3.74412">
        <ele>873.6</ele>
        <time>2022-08-08T11:18:22Z</time>
      </trkpt>
      <trkpt lat="44.36335" lon="3.74414">
        <ele>873.8</ele>
        <time>2022-08-08T11:18:24Z</time>
      </trkpt>
      <trkpt lat="44.36336" lon="3.74417">
        <ele>874.2</ele>
        <time>2022-08-08T11:18:28Z</time>
      </trkpt>
      <trkpt lat="44.36338" lon="3.74419">
        <ele>874.6</ele>
        <time>2022-08-08T11:18:30Z</time>
      </trkpt>
      <trkpt lat="44.36342" lon="3.74421">
        <ele>874.6</ele>
        <time>2022-08-08T11:18:32Z</time>
      </trkpt>
      <trkpt lat="44.36343" lon="3.74423">
        <ele>875</ele>
        <time>2022-08-08T11:18:34Z</time>
      </trkpt>
      <trkpt lat="44.36343" lon="3.74432">
        <ele>876.2</ele>
        <time>2022-08-08T11:18:41Z</time>
      </trkpt>
      <trkpt lat="44.36343" lon="3.74434">
        <ele>876.4</ele>
        <time>2022-08-08T11:18:42Z</time>
      </trkpt>
      <trkpt lat="44.36341" lon="3.74444">
        <ele>877.2</ele>
        <time>2022-08-08T11:18:49Z</time>
      </trkpt>
      <trkpt lat="44.3634" lon="3.7445">
        <ele>878.2</ele>
        <time>2022-08-08T11:18:54Z</time>
      </trkpt>
      <trkpt lat="44.3634" lon="3.74451">
        <ele>878.2</ele>
        <time>2022-08-08T11:18:55Z</time>
      </trkpt>
      <trkpt lat="44.3634" lon="3.74452">
        <ele>878.4</ele>
        <time>2022-08-08T11:18:56Z</time>
      </trkpt>
      <trkpt lat="44.3634" lon="3.74454">
        <ele>878.4</ele>
        <time>2022-08-08T11:18:58Z</time>
      </trkpt>
      <trkpt lat="44.3634" lon="3.74461">
        <ele>879.4</ele>
        <time>2022-08-08T11:19:05Z</time>
      </trkpt>
      <trkpt lat="44.36341" lon="3.74464">
        <ele>880.4</ele>
        <time>2022-08-08T11:19:10Z</time>
      </trkpt>
      <trkpt lat="44.36341" lon="3.74465">
        <ele>880.4</ele>
        <time>2022-08-08T11:19:11Z</time>
      </trkpt>
      <trkpt lat="44.36347" lon="3.74472">
        <ele>881.4</ele>
        <time>2022-08-08T11:19:24Z</time>
      </trkpt>
      <trkpt lat="44.36348" lon="3.74473">
        <ele>881.6</ele>
        <time>2022-08-08T11:19:27Z</time>
      </trkpt>
      <trkpt lat="44.3635" lon="3.74474">
        <ele>881.4</ele>
        <time>2022-08-08T11:19:40Z</time>
      </trkpt>
      <trkpt lat="44.3635" lon="3.74471">
        <ele>881.4</ele>
        <time>2022-08-08T11:19:56Z</time>
      </trkpt>
      <trkpt lat="44.36357" lon="3.74468">
        <ele>882.4</ele>
        <time>2022-08-08T11:20:07Z</time>
      </trkpt>
      <trkpt lat="44.3636" lon="3.74467">
        <ele>882.6</ele>
        <time>2022-08-08T11:20:10Z</time>
      </trkpt>
      <trkpt lat="44.36361" lon="3.74467">
        <ele>882.8</ele>
        <time>2022-08-08T11:20:11Z</time>
      </trkpt>
      <trkpt lat="44.36366" lon="3.74465">
        <ele>883.8</ele>
        <time>2022-08-08T11:20:17Z</time>
      </trkpt>
      <trkpt lat="44.36369" lon="3.74466">
        <ele>884.4</ele>
        <time>2022-08-08T11:20:21Z</time>
      </trkpt>
      <trkpt lat="44.3637" lon="3.74467">
        <ele>885</ele>
        <time>2022-08-08T11:20:23Z</time>
      </trkpt>
      <trkpt lat="44.36371" lon="3.74469">
        <ele>885.4</ele>
        <time>2022-08-08T11:20:25Z</time>
      </trkpt>
      <trkpt lat="44.36368" lon="3.74476">
        <ele>886.2</ele>
        <time>2022-08-08T11:20:30Z</time>
      </trkpt>
      <trkpt lat="44.36368" lon="3.74478">
        <ele>886.4</ele>
        <time>2022-08-08T11:20:31Z</time>
      </trkpt>
      <trkpt lat="44.36368" lon="3.7448">
        <ele>886.6</ele>
        <time>2022-08-08T11:20:32Z</time>
      </trkpt>
      <trkpt lat="44.36368" lon="3.74485">
        <ele>887.2</ele>
        <time>2022-08-08T11:20:35Z</time>
      </trkpt>
      <trkpt lat="44.36368" lon="3.74487">
        <ele>887.4</ele>
        <time>2022-08-08T11:20:36Z</time>
      </trkpt>
      <trkpt lat="44.3637" lon="3.74495">
        <ele>888.4</ele>
        <time>2022-08-08T11:20:42Z</time>
      </trkpt>
      <trkpt lat="44.3637" lon="3.74496">
        <ele>888.4</ele>
        <time>2022-08-08T11:20:43Z</time>
      </trkpt>
      <trkpt lat="44.36371" lon="3.74498">
        <ele>888.6</ele>
        <time>2022-08-08T11:20:47Z</time>
      </trkpt>
      <trkpt lat="44.36372" lon="3.74502">
        <ele>888.8</ele>
        <time>2022-08-08T11:20:51Z</time>
      </trkpt>
      <trkpt lat="44.36372" lon="3.74503">
        <ele>889</ele>
        <time>2022-08-08T11:20:52Z</time>
      </trkpt>
      <trkpt lat="44.36374" lon="3.74508">
        <ele>889.6</ele>
        <time>2022-08-08T11:20:57Z</time>
      </trkpt>
      <trkpt lat="44.36374" lon="3.74511">
        <ele>889.8</ele>
        <time>2022-08-08T11:20:59Z</time>
      </trkpt>
      <trkpt lat="44.36375" lon="3.74519">
        <ele>890.4</ele>
        <time>2022-08-08T11:21:06Z</time>
      </trkpt>
      <trkpt lat="44.36376" lon="3.74523">
        <ele>890.6</ele>
        <time>2022-08-08T11:21:10Z</time>
      </trkpt>
      <trkpt lat="44.36378" lon="3.74531">
        <ele>891</ele>
        <time>2022-08-08T11:21:20Z</time>
      </trkpt>
      <trkpt lat="44.36381" lon="3.74534">
        <ele>891.6</ele>
        <time>2022-08-08T11:21:24Z</time>
      </trkpt>
      <trkpt lat="44.36385" lon="3.74541">
        <ele>892</ele>
        <time>2022-08-08T11:21:30Z</time>
      </trkpt>
      <trkpt lat="44.36388" lon="3.74555">
        <ele>891.8</ele>
        <time>2022-08-08T11:21:42Z</time>
      </trkpt>
      <trkpt lat="44.36391" lon="3.74562">
        <ele>892</ele>
        <time>2022-08-08T11:21:51Z</time>
      </trkpt>
      <trkpt lat="44.36391" lon="3.74563">
        <ele>892.2</ele>
        <time>2022-08-08T11:21:53Z</time>
      </trkpt>
      <trkpt lat="44.36391" lon="3.74565">
        <ele>892.2</ele>
        <time>2022-08-08T11:22:06Z</time>
      </trkpt>
      <trkpt lat="44.36392" lon="3.74564">
        <ele>892.2</ele>
        <time>2022-08-08T11:22:22Z</time>
      </trkpt>
      <trkpt lat="44.36392" lon="3.74563">
        <ele>892.2</ele>
        <time>2022-08-08T11:22:40Z</time>
      </trkpt>
      <trkpt lat="44.36392" lon="3.74561">
        <ele>892</ele>
        <time>2022-08-08T11:22:58Z</time>
      </trkpt>
      <trkpt lat="44.36391" lon="3.74561">
        <ele>892</ele>
        <time>2022-08-08T11:23:17Z</time>
      </trkpt>
      <trkpt lat="44.36391" lon="3.74561">
        <ele>891.6</ele>
        <time>2022-08-08T11:23:37Z</time>
      </trkpt>
      <trkpt lat="44.36391" lon="3.74561">
        <ele>891.8</ele>
        <time>2022-08-08T11:23:53Z</time>
      </trkpt>
      <trkpt lat="44.36391" lon="3.74561">
        <ele>891.8</ele>
        <time>2022-08-08T11:24:09Z</time>
      </trkpt>
      <trkpt lat="44.36388" lon="3.74559">
        <ele>891.8</ele>
        <time>2022-08-08T11:24:26Z</time>
      </trkpt>
      <trkpt lat="44.36392" lon="3.74556">
        <ele>892.2</ele>
        <time>2022-08-08T11:24:44Z</time>
      </trkpt>
      <trkpt lat="44.36395" lon="3.74556">
        <ele>892.2</ele>
        <time>2022-08-08T11:25:02Z</time>
      </trkpt>
      <trkpt lat="44.36394" lon="3.74557">
        <ele>892</ele>
        <time>2022-08-08T11:25:25Z</time>
      </trkpt>
      <trkpt lat="44.36394" lon="3.74559">
        <ele>892</ele>
        <time>2022-08-08T11:25:42Z</time>
      </trkpt>
      <trkpt lat="44.36395" lon="3.74558">
        <ele>891.8</ele>
        <time>2022-08-08T11:25:58Z</time>
      </trkpt>
      <trkpt lat="44.36388" lon="3.74562">
        <ele>891.4</ele>
        <time>2022-08-08T11:26:09Z</time>
      </trkpt>
      <trkpt lat="44.36386" lon="3.74565">
        <ele>891.4</ele>
        <time>2022-08-08T11:26:11Z</time>
      </trkpt>
      <trkpt lat="44.36384" lon="3.74567">
        <ele>891.4</ele>
        <time>2022-08-08T11:26:13Z</time>
      </trkpt>
      <trkpt lat="44.36384" lon="3.74568">
        <ele>891.4</ele>
        <time>2022-08-08T11:26:14Z</time>
      </trkpt>
      <trkpt lat="44.36378" lon="3.74576">
        <ele>891.4</ele>
        <time>2022-08-08T11:26:21Z</time>
      </trkpt>
      <trkpt lat="44.3637" lon="3.7459">
        <ele>890.8</ele>
        <time>2022-08-08T11:26:33Z</time>
      </trkpt>
      <trkpt lat="44.36363" lon="3.74604">
        <ele>890.8</ele>
        <time>2022-08-08T11:26:44Z</time>
      </trkpt>
      <trkpt lat="44.36362" lon="3.74603">
        <ele>890.8</ele>
        <time>2022-08-08T11:26:45Z</time>
      </trkpt>
      <trkpt lat="44.36358" lon="3.74604">
        <ele>890.8</ele>
        <time>2022-08-08T11:26:52Z</time>
      </trkpt>
      <trkpt lat="44.36358" lon="3.74604">
        <ele>890.8</ele>
        <time>2022-08-08T11:26:53Z</time>
      </trkpt>
      <trkpt lat="44.36359" lon="3.74604">
        <ele>890.4</ele>
        <time>2022-08-08T11:27:03Z</time>
      </trkpt>
      <trkpt lat="44.36359" lon="3.74603">
        <ele>890</ele>
        <time>2022-08-08T11:27:06Z</time>
      </trkpt>
      <trkpt lat="44.3636" lon="3.74602">
        <ele>890.2</ele>
        <time>2022-08-08T11:27:19Z</time>
      </trkpt>
      <trkpt lat="44.36362" lon="3.74602">
        <ele>891</ele>
        <time>2022-08-08T11:27:34Z</time>
      </trkpt>
      <trkpt lat="44.36364" lon="3.74603">
        <ele>891</ele>
        <time>2022-08-08T11:27:36Z</time>
      </trkpt>
      <trkpt lat="44.36365" lon="3.74602">
        <ele>891</ele>
        <time>2022-08-08T11:27:47Z</time>
      </trkpt>
      <trkpt lat="44.36373" lon="3.74589">
        <ele>891.6</ele>
        <time>2022-08-08T11:27:53Z</time>
      </trkpt>
      <trkpt lat="44.36384" lon="3.74567">
        <ele>891.8</ele>
        <time>2022-08-08T11:27:59Z</time>
      </trkpt>
      <trkpt lat="44.36386" lon="3.74563">
        <ele>891.8</ele>
        <time>2022-08-08T11:28:00Z</time>
      </trkpt>
      <trkpt lat="44.36397" lon="3.74544">
        <ele>892</ele>
        <time>2022-08-08T11:28:06Z</time>
      </trkpt>
      <trkpt lat="44.36399" lon="3.74544">
        <ele>892</ele>
        <time>2022-08-08T11:28:07Z</time>
      </trkpt>
      <trkpt lat="44.36403" lon="3.74548">
        <ele>892.2</ele>
        <time>2022-08-08T11:28:09Z</time>
      </trkpt>
      <trkpt lat="44.36405" lon="3.74554">
        <ele>892.6</ele>
        <time>2022-08-08T11:28:12Z</time>
      </trkpt>
      <trkpt lat="44.36405" lon="3.74555">
        <ele>892.6</ele>
        <time>2022-08-08T11:28:13Z</time>
      </trkpt>
      <trkpt lat="44.36402" lon="3.7457">
        <ele>893.6</ele>
        <time>2022-08-08T11:28:17Z</time>
      </trkpt>
      <trkpt lat="44.36397" lon="3.74591">
        <ele>894.8</ele>
        <time>2022-08-08T11:28:21Z</time>
      </trkpt>
      <trkpt lat="44.36393" lon="3.74605">
        <ele>895.6</ele>
        <time>2022-08-08T11:28:24Z</time>
      </trkpt>
      <trkpt lat="44.36391" lon="3.74615">
        <ele>896</ele>
        <time>2022-08-08T11:28:27Z</time>
      </trkpt>
      <trkpt lat="44.36388" lon="3.74625">
        <ele>896.6</ele>
        <time>2022-08-08T11:28:29Z</time>
      </trkpt>
      <trkpt lat="44.36386" lon="3.74633">
        <ele>897</ele>
        <time>2022-08-08T11:28:30Z</time>
      </trkpt>
      <trkpt lat="44.3638" lon="3.7466">
        <ele>898.2</ele>
        <time>2022-08-08T11:28:33Z</time>
      </trkpt>
      <trkpt lat="44.36375" lon="3.74681">
        <ele>899.4</ele>
        <time>2022-08-08T11:28:35Z</time>
      </trkpt>
      <trkpt lat="44.36371" lon="3.74701">
        <ele>900.8</ele>
        <time>2022-08-08T11:28:37Z</time>
      </trkpt>
      <trkpt lat="44.36369" lon="3.74709">
        <ele>901.4</ele>
        <time>2022-08-08T11:28:38Z</time>
      </trkpt>
      <trkpt lat="44.36368" lon="3.74722">
        <ele>901.8</ele>
        <time>2022-08-08T11:28:40Z</time>
      </trkpt>
      <trkpt lat="44.36369" lon="3.74728">
        <ele>902</ele>
        <time>2022-08-08T11:28:41Z</time>
      </trkpt>
      <trkpt lat="44.36373" lon="3.7473">
        <ele>902</ele>
        <time>2022-08-08T11:28:42Z</time>
      </trkpt>
      <trkpt lat="44.36378" lon="3.74723">
        <ele>902.8</ele>
        <time>2022-08-08T11:28:44Z</time>
      </trkpt>
      <trkpt lat="44.3638" lon="3.74716">
        <ele>903.4</ele>
        <time>2022-08-08T11:28:45Z</time>
      </trkpt>
      <trkpt lat="44.36384" lon="3.747">
        <ele>904.8</ele>
        <time>2022-08-08T11:28:47Z</time>
      </trkpt>
      <trkpt lat="44.36388" lon="3.74684">
        <ele>905.6</ele>
        <time>2022-08-08T11:28:49Z</time>
      </trkpt>
      <trkpt lat="44.36392" lon="3.74677">
        <ele>906</ele>
        <time>2022-08-08T11:28:50Z</time>
      </trkpt>
      <trkpt lat="44.36396" lon="3.74671">
        <ele>906.4</ele>
        <time>2022-08-08T11:28:51Z</time>
      </trkpt>
      <trkpt lat="44.36407" lon="3.74661">
        <ele>907.2</ele>
        <time>2022-08-08T11:28:53Z</time>
      </trkpt>
      <trkpt lat="44.3642" lon="3.74655">
        <ele>907.8</ele>
        <time>2022-08-08T11:28:55Z</time>
      </trkpt>
      <trkpt lat="44.36428" lon="3.74653">
        <ele>908.6</ele>
        <time>2022-08-08T11:28:56Z</time>
      </trkpt>
      <trkpt lat="44.36445" lon="3.7465">
        <ele>910</ele>
        <time>2022-08-08T11:28:58Z</time>
      </trkpt>
      <trkpt lat="44.36464" lon="3.74648">
        <ele>911.4</ele>
        <time>2022-08-08T11:29:00Z</time>
      </trkpt>
      <trkpt lat="44.36483" lon="3.74648">
        <ele>912.8</ele>
        <time>2022-08-08T11:29:02Z</time>
      </trkpt>
      <trkpt lat="44.36501" lon="3.74652">
        <ele>913.8</ele>
        <time>2022-08-08T11:29:04Z</time>
      </trkpt>
      <trkpt lat="44.36511" lon="3.74656">
        <ele>914.4</ele>
        <time>2022-08-08T11:29:05Z</time>
      </trkpt>
      <trkpt lat="44.36529" lon="3.74666">
        <ele>915.6</ele>
        <time>2022-08-08T11:29:07Z</time>
      </trkpt>
      <trkpt lat="44.36547" lon="3.74676">
        <ele>917</ele>
        <time>2022-08-08T11:29:09Z</time>
      </trkpt>
      <trkpt lat="44.36567" lon="3.74685">
        <ele>918.2</ele>
        <time>2022-08-08T11:29:11Z</time>
      </trkpt>
      <trkpt lat="44.36586" lon="3.74689">
        <ele>919.6</ele>
        <time>2022-08-08T11:29:13Z</time>
      </trkpt>
      <trkpt lat="44.36595" lon="3.7469">
        <ele>920.6</ele>
        <time>2022-08-08T11:29:14Z</time>
      </trkpt>
      <trkpt lat="44.36605" lon="3.74691">
        <ele>921.4</ele>
        <time>2022-08-08T11:29:15Z</time>
      </trkpt>
      <trkpt lat="44.36626" lon="3.74693">
        <ele>922.6</ele>
        <time>2022-08-08T11:29:17Z</time>
      </trkpt>
      <trkpt lat="44.36647" lon="3.74697">
        <ele>924.4</ele>
        <time>2022-08-08T11:29:19Z</time>
      </trkpt>
      <trkpt lat="44.36659" lon="3.74699">
        <ele>925.4</ele>
        <time>2022-08-08T11:29:20Z</time>
      </trkpt>
      <trkpt lat="44.3668" lon="3.74704">
        <ele>927</ele>
        <time>2022-08-08T11:29:22Z</time>
      </trkpt>
      <trkpt lat="44.36702" lon="3.74714">
        <ele>928.4</ele>
        <time>2022-08-08T11:29:24Z</time>
      </trkpt>
      <trkpt lat="44.36713" lon="3.74721">
        <ele>929</ele>
        <time>2022-08-08T11:29:25Z</time>
      </trkpt>
      <trkpt lat="44.36718" lon="3.74728">
        <ele>931</ele>
        <time>2022-08-08T11:29:26Z</time>
      </trkpt>
      <trkpt lat="44.36724" lon="3.74735">
        <ele>931</ele>
        <time>2022-08-08T11:29:27Z</time>
      </trkpt>
      <trkpt lat="44.36747" lon="3.74764">
        <ele>932.8</ele>
        <time>2022-08-08T11:29:29Z</time>
      </trkpt>
      <trkpt lat="44.36754" lon="3.74778">
        <ele>934</ele>
        <time>2022-08-08T11:29:30Z</time>
      </trkpt>
      <trkpt lat="44.36766" lon="3.74806">
        <ele>935.6</ele>
        <time>2022-08-08T11:29:32Z</time>
      </trkpt>
      <trkpt lat="44.3678" lon="3.7483">
        <ele>937</ele>
        <time>2022-08-08T11:29:34Z</time>
      </trkpt>
      <trkpt lat="44.36788" lon="3.74839">
        <ele>937.8</ele>
        <time>2022-08-08T11:29:35Z</time>
      </trkpt>
      <trkpt lat="44.36796" lon="3.74846">
        <ele>938.8</ele>
        <time>2022-08-08T11:29:36Z</time>
      </trkpt>
      <trkpt lat="44.36806" lon="3.74852">
        <ele>939.2</ele>
        <time>2022-08-08T11:29:37Z</time>
      </trkpt>
      <trkpt lat="44.36825" lon="3.74857">
        <ele>940.6</ele>
        <time>2022-08-08T11:29:39Z</time>
      </trkpt>
      <trkpt lat="44.36836" lon="3.7486">
        <ele>941.2</ele>
        <time>2022-08-08T11:29:40Z</time>
      </trkpt>
      <trkpt lat="44.36845" lon="3.74863">
        <ele>942</ele>
        <time>2022-08-08T11:29:41Z</time>
      </trkpt>
      <trkpt lat="44.36865" lon="3.74867">
        <ele>943.4</ele>
        <time>2022-08-08T11:29:43Z</time>
      </trkpt>
      <trkpt lat="44.36885" lon="3.74868">
        <ele>944.6</ele>
        <time>2022-08-08T11:29:45Z</time>
      </trkpt>
      <trkpt lat="44.36896" lon="3.74868">
        <ele>945.4</ele>
        <time>2022-08-08T11:29:46Z</time>
      </trkpt>
      <trkpt lat="44.36906" lon="3.74868">
        <ele>946.2</ele>
        <time>2022-08-08T11:29:47Z</time>
      </trkpt>
      <trkpt lat="44.36929" lon="3.74867">
        <ele>947.8</ele>
        <time>2022-08-08T11:29:49Z</time>
      </trkpt>
      <trkpt lat="44.36951" lon="3.74867">
        <ele>949.6</ele>
        <time>2022-08-08T11:29:51Z</time>
      </trkpt>
      <trkpt lat="44.36962" lon="3.74869">
        <ele>950.2</ele>
        <time>2022-08-08T11:29:52Z</time>
      </trkpt>
      <trkpt lat="44.36972" lon="3.74873">
        <ele>951.4</ele>
        <time>2022-08-08T11:29:53Z</time>
      </trkpt>
      <trkpt lat="44.36993" lon="3.74882">
        <ele>952.6</ele>
        <time>2022-08-08T11:29:55Z</time>
      </trkpt>
      <trkpt lat="44.37002" lon="3.74889">
        <ele>953.8</ele>
        <time>2022-08-08T11:29:56Z</time>
      </trkpt>
      <trkpt lat="44.37012" lon="3.74895">
        <ele>954.8</ele>
        <time>2022-08-08T11:29:57Z</time>
      </trkpt>
      <trkpt lat="44.37029" lon="3.74909">
        <ele>956.4</ele>
        <time>2022-08-08T11:29:59Z</time>
      </trkpt>
      <trkpt lat="44.37044" lon="3.74927">
        <ele>957.8</ele>
        <time>2022-08-08T11:30:01Z</time>
      </trkpt>
      <trkpt lat="44.37057" lon="3.74948">
        <ele>959.2</ele>
        <time>2022-08-08T11:30:03Z</time>
      </trkpt>
      <trkpt lat="44.3707" lon="3.74968">
        <ele>960.6</ele>
        <time>2022-08-08T11:30:05Z</time>
      </trkpt>
      <trkpt lat="44.37085" lon="3.74982">
        <ele>962</ele>
        <time>2022-08-08T11:30:07Z</time>
      </trkpt>
    </trkseg>
  </trk>
</gpx>